createdAt,value
2022-11-24T00:03:33.598Z,35.70
2022-11-24T00:06:20.681Z,34.70
2022-11-24T00:09:08.170Z,35.83
2022-11-24T00:11:55.221Z,35.33
2022-11-24T00:14:42.288Z,37.92
2022-11-24T00:17:29.591Z,39.00
2022-11-24T00:20:16.793Z,41.15
2022-11-24T00:23:03.811Z,39.38
2022-11-24T00:25:50.890Z,38.10
2022-11-24T00:28:38.717Z,37.97
2022-11-24T00:31:28.441Z,37.60
2022-11-24T00:34:15.617Z,40.10
2022-11-24T00:37:02.741Z,40.17
2022-11-24T00:39:49.802Z,38.80
2022-11-24T00:42:36.849Z,35.92
2022-11-24T00:45:23.878Z,36.85
2022-11-24T00:48:11.101Z,36.65
2022-11-24T00:51:00.546Z,42.67
2022-11-24T00:53:48.293Z,38.90
2022-11-24T00:56:35.617Z,35.55
2022-11-24T00:59:22.668Z,39.10
2022-11-24T01:02:09.821Z,35.35
2022-11-24T01:04:56.943Z,39.35
2022-11-24T01:07:44.059Z,36.55
2022-11-24T01:10:31.768Z,33.97
2022-11-24T01:13:18.850Z,34.00
2022-11-24T01:16:06.512Z,34.60
2022-11-24T01:18:53.737Z,30.90
2022-11-24T01:21:40.891Z,33.30
2022-11-24T01:24:27.927Z,36.72
2022-11-24T01:27:14.974Z,34.65
2022-11-24T01:30:02.307Z,35.80
2022-11-24T01:32:49.377Z,37.75
2022-11-24T01:35:36.783Z,36.60
2022-11-24T01:38:24.450Z,36.65
2022-11-24T01:41:14.022Z,38.00
2022-11-24T01:44:01.122Z,37.75
2022-11-24T01:46:51.318Z,39.92
2022-11-24T01:52:45.128Z,33.92
2022-11-24T01:55:37.091Z,39.08
2022-11-24T01:58:28.769Z,33.00
2022-11-24T02:01:15.851Z,34.00
2022-11-24T02:04:06.586Z,33.55
2022-11-24T02:06:55.743Z,36.15
2022-11-24T02:09:56.647Z,34.78
2022-11-24T02:12:46.863Z,28.90
2022-11-24T02:18:21.877Z,29.00
2022-11-24T02:21:14.844Z,30.25
2022-11-24T02:24:31.465Z,29.08
2022-11-24T02:27:20.050Z,30.70
2022-11-24T02:30:07.555Z,25.73
2022-11-24T02:32:55.195Z,26.42
2022-11-24T02:35:42.937Z,25.77
2022-11-24T02:38:34.776Z,24.65
2022-11-24T02:41:25.667Z,22.90
2022-11-24T02:44:16.295Z,21.30
2022-11-24T02:47:06.015Z,22.73
2022-11-24T02:49:53.077Z,24.67
2022-11-24T02:52:40.192Z,21.20
2022-11-24T02:55:27.258Z,22.13
2022-11-24T02:58:15.179Z,21.27
2022-11-24T03:01:02.568Z,20.73
2022-11-24T03:03:49.642Z,19.98
2022-11-24T03:06:36.706Z,19.08
2022-11-24T03:09:23.905Z,19.08
2022-11-24T03:12:10.938Z,19.15
2022-11-24T03:14:58.078Z,21.10
2022-11-24T03:17:45.120Z,17.33
2022-11-24T03:20:32.630Z,18.02
2022-11-24T03:23:19.962Z,20.80
2022-11-24T03:26:09.023Z,16.67
2022-11-24T03:28:57.396Z,20.02
2022-11-24T03:31:44.504Z,18.42
2022-11-24T03:34:31.733Z,17.10
2022-11-24T03:37:18.980Z,17.85
2022-11-24T03:40:06.623Z,17.83
2022-11-24T03:42:53.673Z,20.65
2022-11-24T03:45:47.801Z,16.63
2022-11-24T03:48:35.112Z,17.27
2022-11-24T03:51:22.175Z,15.20
2022-11-24T03:54:09.328Z,17.05
2022-11-24T03:56:56.378Z,16.92
2022-11-24T03:59:43.452Z,14.48
2022-11-24T04:02:30.609Z,16.05
2022-11-24T04:05:17.750Z,13.68
2022-11-24T04:08:05.537Z,14.20
2022-11-24T04:10:54.530Z,12.40
2022-11-24T04:13:41.551Z,14.05
2022-11-24T04:16:28.681Z,14.23
2022-11-24T04:19:15.792Z,13.55
2022-11-24T04:22:02.814Z,12.25
2022-11-24T04:24:49.908Z,11.18
2022-11-24T04:27:38.068Z,11.52
2022-11-24T04:30:28.622Z,11.10
2022-11-24T04:33:15.698Z,10.32
2022-11-24T04:36:02.763Z,10.82
2022-11-24T04:39:24.332Z,13.65
2022-11-24T04:44:47.255Z,10.90
2022-11-24T04:47:34.954Z,10.15
2022-11-24T04:50:22.141Z,11.65
2022-11-24T04:53:11.107Z,11.45
2022-11-24T04:55:58.866Z,11.23
2022-11-24T04:58:49.168Z,10.82
2022-11-24T05:01:36.237Z,12.40
2022-11-24T05:04:23.659Z,11.20
2022-11-24T05:07:18.350Z,11.32
2022-11-24T05:10:25.007Z,12.90
2022-11-24T05:13:14.612Z,11.10
2022-11-24T05:16:01.907Z,11.30
2022-11-24T05:18:49.063Z,11.43
2022-11-24T05:21:36.090Z,12.48
2022-11-24T05:24:23.106Z,11.05
2022-11-24T05:27:10.103Z,11.25
2022-11-24T05:29:57.367Z,12.30
2022-11-24T05:32:44.336Z,12.10
2022-11-24T05:35:32.075Z,11.95
2022-11-24T05:38:19.186Z,13.18
2022-11-24T05:41:06.618Z,15.32
2022-11-24T05:43:53.691Z,11.52
2022-11-24T05:46:40.780Z,11.27
2022-11-24T05:49:27.814Z,13.18
2022-11-24T05:52:15.687Z,13.50
2022-11-24T05:55:04.703Z,13.75
2022-11-24T05:57:58.571Z,14.18
2022-11-24T06:00:45.633Z,14.75
2022-11-24T06:03:32.662Z,12.82
2022-11-24T06:06:19.733Z,13.57
2022-11-24T06:09:09.703Z,16.02
2022-11-24T06:11:56.750Z,14.77
2022-11-24T06:14:43.830Z,14.65
2022-11-24T06:17:31.078Z,13.95
2022-11-24T06:20:18.248Z,13.88
2022-11-24T06:23:05.256Z,13.02
2022-11-24T06:25:52.415Z,14.32
2022-11-24T06:28:39.574Z,15.35
2022-11-24T06:31:26.715Z,14.80
2022-11-24T06:34:13.932Z,16.23
2022-11-24T06:37:02.133Z,15.40
2022-11-24T06:39:49.418Z,15.35
2022-11-24T06:42:37.453Z,17.00
2022-11-24T06:45:25.371Z,14.82
2022-11-24T06:48:12.422Z,14.88
2022-11-24T06:51:05.422Z,16.83
2022-11-24T06:53:52.479Z,16.83
2022-11-24T06:56:39.687Z,17.13
2022-11-24T06:59:27.120Z,17.35
2022-11-24T07:02:14.136Z,17.23
2022-11-24T07:05:01.179Z,23.58
2022-11-24T07:07:50.743Z,18.25
2022-11-24T07:10:38.322Z,23.83
2022-11-24T07:13:25.395Z,20.05
2022-11-24T07:16:17.881Z,17.98
2022-11-24T07:19:05.004Z,29.05
2022-11-24T07:21:52.140Z,20.80
2022-11-24T07:24:39.195Z,21.35
2022-11-24T07:27:27.844Z,18.80
2022-11-24T07:30:14.927Z,18.25
2022-11-24T07:33:03.114Z,18.65
2022-11-24T07:35:50.083Z,17.15
2022-11-24T07:38:37.152Z,19.92
2022-11-24T07:41:24.170Z,19.88
2022-11-24T07:44:11.248Z,21.95
2022-11-24T07:46:58.305Z,20.38
2022-11-24T07:49:45.440Z,17.75
2022-11-24T07:52:32.449Z,20.98
2022-11-24T07:55:19.559Z,21.45
2022-11-24T07:58:06.691Z,28.63
2022-11-24T08:00:53.806Z,21.77
2022-11-24T08:03:41.486Z,19.10
2022-11-24T08:06:36.243Z,20.35
2022-11-24T08:09:27.696Z,21.67
2022-11-24T08:12:16.604Z,18.63
2022-11-24T08:15:09.467Z,21.90
2022-11-24T08:18:01.237Z,16.67
2022-11-24T08:23:35.279Z,19.83
2022-11-24T08:26:23.113Z,16.67
2022-11-24T08:29:10.789Z,17.48
2022-11-24T08:31:58.263Z,20.00
2022-11-24T08:34:45.329Z,16.20
2022-11-24T08:37:32.909Z,19.45
2022-11-24T08:40:20.470Z,21.83
2022-11-24T08:43:07.510Z,16.38
2022-11-24T08:45:54.767Z,17.33
2022-11-24T08:48:41.863Z,16.75
2022-11-24T08:51:28.954Z,16.67
2022-11-24T08:54:18.739Z,15.65
2022-11-24T08:57:05.849Z,17.83
2022-11-24T08:59:52.989Z,15.43
2022-11-24T09:02:40.224Z,17.30
2022-11-24T09:05:51.081Z,16.60
2022-11-24T09:08:34.388Z,22.55
2022-11-24T09:11:22.415Z,17.23
2022-11-24T09:14:09.487Z,19.60
2022-11-24T09:16:56.590Z,19.02
2022-11-24T09:19:43.712Z,22.80
2022-11-24T09:22:31.446Z,19.58
2022-11-24T09:25:18.635Z,19.42
2022-11-24T09:28:05.851Z,20.15
2022-11-24T09:30:52.911Z,21.45
2022-11-24T09:33:40.859Z,24.13
2022-11-24T09:36:28.924Z,18.40
2022-11-24T09:39:15.932Z,20.38
2022-11-24T09:42:35.997Z,19.13
2022-11-24T09:46:04.512Z,16.67
2022-11-24T09:48:55.118Z,22.30
2022-11-24T09:51:47.039Z,19.48
2022-11-24T09:54:37.430Z,17.98
2022-11-24T09:57:26.820Z,19.42
2022-11-24T10:00:15.137Z,15.43
2022-11-24T10:03:02.420Z,18.88
2022-11-24T10:05:51.621Z,19.20
2022-11-24T10:08:38.646Z,15.17
2022-11-24T10:11:52.420Z,13.60
2022-11-24T10:15:01.818Z,15.32
2022-11-24T10:18:16.187Z,19.38
2022-11-24T10:21:24.916Z,15.07
2022-11-24T10:24:36.594Z,14.50
2022-11-24T10:27:34.047Z,14.40
2022-11-24T10:30:24.103Z,17.08
2022-11-24T10:33:28.756Z,30.77
2022-11-24T10:36:41.751Z,13.85
2022-11-24T10:39:58.584Z,18.98
2022-11-24T10:42:48.995Z,15.90
2022-11-24T10:45:37.955Z,14.38
2022-11-24T10:48:27.441Z,14.98
2022-11-24T10:51:41.733Z,14.30
2022-11-24T10:54:29.404Z,11.55
2022-11-24T10:57:27.974Z,14.23
2022-11-24T11:00:20.855Z,15.50
2022-11-24T11:03:17.928Z,15.45
2022-11-24T11:06:15.456Z,14.40
2022-11-24T11:09:08.565Z,14.35
2022-11-24T11:11:56.903Z,13.45
2022-11-24T11:14:48.468Z,12.18
2022-11-24T11:17:38.600Z,15.80
2022-11-24T11:23:24.161Z,12.55
2022-11-24T11:26:32.232Z,12.65
2022-11-24T11:35:37.828Z,12.63
2022-11-24T11:38:38.038Z,12.02
2022-11-24T11:44:36.018Z,11.48
2022-11-24T11:47:31.621Z,12.15
2022-11-24T11:50:27.574Z,13.10
2022-11-24T11:53:18.259Z,10.10
2022-11-24T11:56:16.648Z,13.07
2022-11-24T11:59:32.910Z,13.63
2022-11-24T12:02:50.056Z,10.20
2022-11-24T12:06:02.938Z,15.57
2022-11-24T12:09:21.738Z,14.00
2022-11-24T12:12:27.591Z,14.00
2022-11-24T12:15:30.485Z,14.60
2022-11-24T12:18:48.439Z,13.85
2022-11-24T12:21:40.720Z,11.82
2022-11-24T12:24:47.674Z,11.13
2022-11-24T12:28:03.794Z,14.30
2022-11-24T12:31:08.640Z,13.82
2022-11-24T12:34:07.816Z,12.13
2022-11-24T12:37:15.926Z,11.93
2022-11-24T12:40:08.855Z,13.90
2022-11-24T12:43:26.815Z,14.23
2022-11-24T12:46:47.754Z,11.95
2022-11-24T12:50:05.382Z,17.58
2022-11-24T12:53:13.782Z,13.65
2022-11-24T12:56:13.319Z,14.57
2022-11-24T12:59:39.823Z,16.77
2022-11-24T13:02:57.231Z,11.55
2022-11-24T13:06:17.004Z,14.40
2022-11-24T13:09:11.780Z,9.73
2022-11-24T13:12:13.489Z,10.30
2022-11-24T13:15:00.538Z,13.50
2022-11-24T13:18:05.127Z,12.40
2022-11-24T13:20:54.173Z,8.85
2022-11-24T13:23:41.246Z,9.93
2022-11-24T13:26:43.207Z,10.95
2022-11-24T13:29:32.844Z,12.15
2022-11-24T13:32:19.870Z,13.25
2022-11-24T13:35:16.466Z,9.43
2022-11-24T13:38:24.296Z,11.05
2022-11-24T13:41:34.302Z,9.65
2022-11-24T13:44:24.877Z,8.10
2022-11-24T13:47:35.964Z,9.80
2022-11-24T13:50:44.335Z,14.43
2022-11-24T13:53:45.699Z,10.95
2022-11-24T13:56:32.926Z,12.65
2022-11-24T13:59:33.093Z,12.85
2022-11-24T14:02:24.164Z,16.98
2022-11-24T14:05:19.864Z,10.18
2022-11-24T14:08:16.725Z,11.30
2022-11-24T14:11:13.068Z,8.18
2022-11-24T14:14:16.030Z,12.43
2022-11-24T14:17:24.226Z,8.68
2022-11-24T14:20:22.632Z,7.35
2022-11-24T14:23:10.445Z,9.43
2022-11-24T14:25:57.687Z,9.52
2022-11-24T14:28:45.586Z,8.98
2022-11-24T14:31:33.320Z,12.75
2022-11-24T14:34:22.233Z,11.40
2022-11-24T14:37:10.382Z,8.77
2022-11-24T14:39:57.408Z,8.70
2022-11-24T14:42:50.634Z,9.15
2022-11-24T14:45:37.828Z,9.00
2022-11-24T14:48:30.722Z,12.20
2022-11-24T14:51:26.944Z,9.82
2022-11-24T14:54:18.536Z,12.52
2022-11-24T14:57:21.949Z,8.93
2022-11-24T15:00:11.868Z,10.45
2022-11-24T15:03:02.062Z,7.45
2022-11-24T15:05:52.168Z,9.13
2022-11-24T15:11:34.348Z,9.20
2022-11-24T15:14:36.901Z,9.20
2022-11-24T15:17:27.529Z,11.45
2022-11-24T15:20:26.202Z,12.80
2022-11-24T15:23:16.333Z,20.42
2022-11-24T15:28:50.363Z,8.32
2022-11-24T15:31:38.835Z,10.65
2022-11-24T15:34:25.889Z,9.48
2022-11-24T15:37:13.220Z,7.55
2022-11-24T15:40:00.335Z,10.68
2022-11-24T15:42:54.955Z,10.05
2022-11-24T15:45:41.986Z,8.93
2022-11-24T15:48:29.638Z,12.35
2022-11-24T15:51:16.799Z,8.32
2022-11-24T15:54:04.186Z,7.93
2022-11-24T15:56:51.392Z,7.75
2022-11-24T15:59:38.807Z,20.05
2022-11-24T16:02:25.960Z,10.98
2022-11-24T16:05:14.202Z,11.00
2022-11-24T16:08:01.313Z,10.07
2022-11-24T16:10:48.387Z,9.55
2022-11-24T16:13:35.549Z,9.07
2022-11-24T16:16:25.007Z,12.30
2022-11-24T16:19:13.192Z,10.18
2022-11-24T16:22:00.498Z,10.30
2022-11-24T16:24:47.678Z,7.60
2022-11-24T16:27:35.016Z,6.38
2022-11-24T16:30:22.350Z,11.55
2022-11-24T16:33:09.648Z,9.90
2022-11-24T16:35:56.779Z,8.40
2022-11-24T16:38:44.158Z,6.13
2022-11-24T16:41:31.818Z,9.90
2022-11-24T16:44:19.046Z,9.00
2022-11-24T16:47:06.838Z,8.48
2022-11-24T16:49:53.964Z,6.55
2022-11-24T16:52:42.645Z,19.90
2022-11-24T16:55:29.896Z,16.58
2022-11-24T16:58:18.725Z,7.22
2022-11-24T17:01:08.585Z,6.00
2022-11-24T17:03:56.739Z,8.05
2022-11-24T17:06:44.334Z,13.55
2022-11-24T17:09:35.988Z,10.13
2022-11-24T17:12:28.431Z,8.25
2022-11-24T17:15:32.627Z,7.13
2022-11-24T17:18:25.430Z,7.53
2022-11-24T17:21:15.784Z,8.40
2022-11-24T17:24:09.026Z,7.90
2022-11-24T17:26:56.309Z,9.20
2022-11-24T17:29:43.594Z,6.97
2022-11-24T17:32:32.123Z,6.93
2022-11-24T17:35:20.037Z,11.63
2022-11-24T17:38:07.568Z,17.58
2022-11-24T17:40:56.455Z,5.30
2022-11-24T17:43:44.575Z,5.30
2022-11-24T17:46:33.549Z,7.18
2022-11-24T17:49:21.793Z,9.07
2022-11-24T17:52:09.668Z,6.50
2022-11-24T17:54:58.254Z,5.65
2022-11-24T17:57:46.047Z,10.35
2022-11-24T18:00:34.058Z,5.90
2022-11-24T18:03:22.585Z,5.95
2022-11-24T18:06:13.565Z,5.20
2022-11-24T18:09:01.373Z,8.43
2022-11-24T18:11:49.137Z,7.82
2022-11-24T18:14:37.262Z,7.85
2022-11-24T18:17:28.176Z,6.40
2022-11-24T18:20:17.364Z,7.18
2022-11-24T18:23:06.266Z,5.80
2022-11-24T18:26:00.101Z,6.78
2022-11-24T18:28:48.754Z,5.10
2022-11-24T18:31:37.145Z,5.55
2022-11-24T18:34:28.661Z,7.93
2022-11-24T18:37:16.929Z,5.53
2022-11-24T18:40:05.282Z,6.22
2022-11-24T18:42:53.423Z,5.05
2022-11-24T18:45:41.474Z,7.05
2022-11-24T18:48:30.184Z,6.75
2022-11-24T18:51:19.235Z,5.07
2022-11-24T18:54:07.587Z,5.65
2022-11-24T18:57:00.240Z,5.43
2022-11-24T18:59:50.959Z,2.75
2022-11-24T19:02:38.911Z,5.50
2022-11-24T19:05:26.654Z,4.22
2022-11-24T19:08:17.568Z,7.35
2022-11-24T19:11:07.706Z,3.08
2022-11-24T19:13:56.772Z,4.80
2022-11-24T19:16:45.531Z,5.90
2022-11-24T19:19:36.123Z,4.05
2022-11-24T19:22:23.391Z,9.55
2022-11-24T19:25:12.053Z,7.07
2022-11-24T19:27:59.911Z,5.78
2022-11-24T19:30:48.006Z,3.92
2022-11-24T19:33:36.548Z,6.22
2022-11-24T19:36:25.589Z,4.95
2022-11-24T19:39:15.990Z,5.57
2022-11-24T19:42:05.476Z,7.07
2022-11-24T19:44:56.636Z,4.30
2022-11-24T19:47:46.068Z,5.50
2022-11-24T19:50:35.222Z,4.13
2022-11-24T19:53:24.699Z,5.25
2022-11-24T19:56:22.658Z,4.68
2022-11-24T19:59:10.869Z,5.00
2022-11-24T20:01:59.982Z,5.43
2022-11-24T20:04:48.570Z,2.77
2022-11-24T20:07:37.023Z,6.78
2022-11-24T20:10:26.708Z,5.10
2022-11-24T20:13:14.808Z,5.93
2022-11-24T20:16:14.441Z,6.35
2022-11-24T20:19:08.281Z,7.72
2022-11-24T20:21:55.879Z,6.88
2022-11-24T20:24:43.775Z,5.43
2022-11-24T20:27:31.825Z,4.13
2022-11-24T20:30:19.963Z,7.90
2022-11-24T20:33:07.937Z,8.90
2022-11-24T20:35:56.378Z,6.18
2022-11-24T20:38:45.242Z,7.53
2022-11-24T20:41:36.034Z,10.50
2022-11-24T20:44:27.196Z,5.35
2022-11-24T20:47:15.327Z,10.75
2022-11-24T20:50:02.750Z,6.53
2022-11-24T20:52:51.899Z,11.25
2022-11-24T20:55:39.489Z,5.23
2022-11-24T20:58:27.143Z,11.40
2022-11-24T21:01:20.483Z,4.28
2022-11-24T21:04:10.330Z,10.18
2022-11-24T21:06:58.560Z,9.30
2022-11-24T21:09:47.249Z,6.65
2022-11-24T21:12:35.471Z,3.92
2022-11-24T21:15:24.419Z,2.70
2022-11-24T21:18:11.849Z,5.50
2022-11-24T21:20:59.628Z,5.05
2022-11-24T21:23:47.924Z,6.97
2022-11-24T21:26:37.054Z,6.68
2022-11-24T21:29:26.077Z,4.93
2022-11-24T21:32:13.323Z,7.90
2022-11-24T21:35:00.449Z,5.60
2022-11-24T21:37:47.669Z,4.57
2022-11-24T21:40:35.009Z,8.88
2022-11-24T21:43:21.998Z,8.70
2022-11-24T21:46:11.320Z,7.88
2022-11-24T21:48:58.443Z,18.90
2022-11-24T21:51:45.522Z,21.08
2022-11-24T21:54:32.932Z,20.15
2022-11-24T21:57:20.828Z,9.27
2022-11-24T22:00:08.100Z,4.50
2022-11-24T22:02:55.154Z,7.25
2022-11-24T22:05:42.691Z,2.65
2022-11-24T22:08:31.457Z,4.68
2022-11-24T22:11:21.481Z,4.40
2022-11-24T22:14:08.897Z,7.55
2022-11-24T22:16:55.975Z,20.50
2022-11-24T22:19:42.978Z,17.98
2022-11-24T22:22:29.979Z,4.15
2022-11-24T22:25:17.032Z,5.22
2022-11-24T22:28:04.129Z,6.05
2022-11-24T22:30:51.201Z,8.00
2022-11-24T22:33:38.480Z,10.70
2022-11-24T22:36:28.875Z,4.97
2022-11-24T22:39:15.952Z,5.55
2022-11-24T22:42:03.015Z,7.53
2022-11-24T22:44:50.129Z,5.32
2022-11-24T22:47:37.219Z,4.63
2022-11-24T22:50:24.258Z,6.55
2022-11-24T22:53:11.289Z,5.95
2022-11-24T22:56:06.804Z,4.70
2022-11-24T22:58:54.207Z,4.20
2022-11-24T23:01:41.292Z,7.00
2022-11-24T23:04:28.354Z,3.20
2022-11-24T23:07:15.521Z,3.92
2022-11-24T23:10:02.818Z,4.53
2022-11-24T23:12:50.187Z,3.22
2022-11-24T23:15:37.181Z,6.10
2022-11-24T23:18:24.280Z,6.47
2022-11-24T23:21:15.653Z,2.97
2022-11-24T23:24:04.772Z,7.25
2022-11-24T23:26:52.916Z,4.63
2022-11-24T23:29:40.098Z,6.72
2022-11-24T23:32:27.079Z,4.65
2022-11-24T23:35:14.307Z,3.97
2022-11-24T23:38:07.432Z,4.45
2022-11-24T23:40:57.776Z,6.07
2022-11-24T23:43:45.009Z,3.58
2022-11-24T23:46:32.761Z,3.67
2022-11-24T23:49:19.782Z,8.93
2022-11-24T23:52:07.127Z,5.32
2022-11-24T23:57:58.668Z,2.50
